createdAt,value
2023-11-01T00:00:02.729Z,994.58
2023-11-01T00:01:02.717Z,994.61
2023-11-01T00:02:02.702Z,994.62
2023-11-01T00:03:02.744Z,994.60
2023-11-01T00:04:02.686Z,994.63
2023-11-01T00:05:02.661Z,994.60
2023-11-01T00:06:02.651Z,994.63
2023-11-01T00:07:02.638Z,994.62
2023-11-01T00:08:02.596Z,994.52
2023-11-01T00:09:02.588Z,994.59
2023-11-01T00:10:02.610Z,994.60
2023-11-01T00:11:02.552Z,994.60
2023-11-01T00:12:02.560Z,994.58
2023-11-01T00:13:02.526Z,994.55
2023-11-01T00:14:02.533Z,994.62
2023-11-01T00:15:02.516Z,994.56
2023-11-01T00:16:02.491Z,994.60
2023-11-01T00:17:02.479Z,994.61
2023-11-01T00:18:02.547Z,994.64
2023-11-01T00:19:02.461Z,994.61
2023-11-01T00:20:02.442Z,994.63
2023-11-01T00:21:02.425Z,994.60
2023-11-01T00:22:02.414Z,994.58
2023-11-01T00:23:02.412Z,994.58
2023-11-01T00:24:02.413Z,994.56
2023-11-01T00:25:02.364Z,994.57
2023-11-01T00:26:02.353Z,994.55
2023-11-01T00:27:02.337Z,994.57
2023-11-01T00:28:02.328Z,994.50
2023-11-01T00:29:02.337Z,994.52
2023-11-01T00:30:02.307Z,994.49
2023-11-01T00:31:02.288Z,994.51
2023-11-01T00:32:02.273Z,994.51
2023-11-01T00:33:02.354Z,994.43
2023-11-01T00:34:02.313Z,994.48
2023-11-01T00:35:02.242Z,994.50
2023-11-01T00:36:02.244Z,994.47
2023-11-01T00:37:02.260Z,994.44
2023-11-01T00:38:02.209Z,994.50
2023-11-01T00:39:02.196Z,994.49
2023-11-01T00:40:02.175Z,994.51
2023-11-01T00:41:02.151Z,994.44
2023-11-01T00:42:02.158Z,994.51
2023-11-01T00:43:02.152Z,994.44
2023-11-01T00:44:02.125Z,994.44
2023-11-01T00:45:02.104Z,994.41
2023-11-01T00:46:02.085Z,994.42
2023-11-01T00:47:02.111Z,994.36
2023-11-01T00:48:02.155Z,994.39
2023-11-01T00:49:02.052Z,994.35
2023-11-01T00:50:02.039Z,994.32
2023-11-01T00:51:02.026Z,994.37
2023-11-01T00:52:02.023Z,994.35
2023-11-01T00:53:02.015Z,994.38
2023-11-01T00:54:01.991Z,994.32
2023-11-01T00:55:01.990Z,994.33
2023-11-01T00:56:01.962Z,994.36
2023-11-01T00:57:01.971Z,994.33
2023-11-01T00:58:01.924Z,994.28
2023-11-01T00:59:01.906Z,994.31
2023-11-01T01:00:01.940Z,994.29
2023-11-01T01:01:03.417Z,994.25
2023-11-01T01:02:01.888Z,994.25
2023-11-01T01:03:02.024Z,994.37
2023-11-01T01:04:01.961Z,994.33
2023-11-01T01:05:01.826Z,994.30
2023-11-01T01:06:01.829Z,994.35
2023-11-01T01:07:01.819Z,994.34
2023-11-01T01:08:01.834Z,994.36
2023-11-01T01:09:01.781Z,994.39
2023-11-01T01:10:01.773Z,994.37
2023-11-01T01:11:01.807Z,994.36
2023-11-01T01:12:01.740Z,994.35
2023-11-01T01:13:01.723Z,994.37
2023-11-01T01:14:01.720Z,994.38
2023-11-01T01:15:01.697Z,994.32
2023-11-01T01:16:01.726Z,994.27
2023-11-01T01:17:01.715Z,994.35
2023-11-01T01:18:01.773Z,994.36
2023-11-01T01:19:01.642Z,994.34
2023-11-01T01:20:01.687Z,994.36
2023-11-01T01:21:01.643Z,994.29
2023-11-01T01:22:01.605Z,994.26
2023-11-01T01:23:01.615Z,994.26
2023-11-01T01:24:01.585Z,994.29
2023-11-01T01:25:01.597Z,994.23
2023-11-01T01:26:01.547Z,994.20
2023-11-01T01:27:01.573Z,994.24
2023-11-01T01:28:01.530Z,994.20
2023-11-01T01:29:01.531Z,994.25
2023-11-01T01:30:01.521Z,994.21
2023-11-01T01:31:01.497Z,994.24
2023-11-01T01:32:01.468Z,994.30
2023-11-01T01:33:01.478Z,994.25
2023-11-01T01:34:01.470Z,994.22
2023-11-01T01:35:01.566Z,994.20
2023-11-01T01:36:01.459Z,994.20
2023-11-01T01:37:01.409Z,994.22
2023-11-01T01:38:01.422Z,994.23
2023-11-01T01:39:01.487Z,994.16
2023-11-01T01:40:01.384Z,994.20
2023-11-01T01:41:01.355Z,994.11
2023-11-01T01:42:01.345Z,994.11
2023-11-01T01:43:01.429Z,994.05
2023-11-01T01:44:01.425Z,994.12
2023-11-01T01:45:01.318Z,994.12
2023-11-01T01:46:01.342Z,994.12
2023-11-01T01:47:01.272Z,994.08
2023-11-01T01:48:01.370Z,994.07
2023-11-01T01:49:01.268Z,994.02
2023-11-01T01:50:01.236Z,994.04
2023-11-01T01:51:01.230Z,994.04
2023-11-01T01:52:01.204Z,994.05
2023-11-01T01:53:01.201Z,993.99
2023-11-01T01:54:01.201Z,994.03
2023-11-01T01:55:01.180Z,993.96
2023-11-01T01:56:01.150Z,994.02
2023-11-01T01:57:01.142Z,994.06
2023-11-01T01:58:01.170Z,994.08
2023-11-01T01:59:01.211Z,994.08
2023-11-01T02:00:01.098Z,994.10
2023-11-01T02:01:01.161Z,994.05
2023-11-01T02:02:01.164Z,994.04
2023-11-01T02:03:01.112Z,994.04
2023-11-01T02:04:01.044Z,994.03
2023-11-01T02:05:01.042Z,994.00
2023-11-01T02:06:01.030Z,993.94
2023-11-01T02:07:01.010Z,993.95
2023-11-01T02:08:01.246Z,993.90
2023-11-01T02:09:00.998Z,993.89
2023-11-01T02:10:00.965Z,993.90
2023-11-01T02:11:00.960Z,993.88
2023-11-01T02:12:00.942Z,993.90
2023-11-01T02:13:00.945Z,993.88
2023-11-01T02:14:00.919Z,993.94
2023-11-01T02:15:00.927Z,993.88
2023-11-01T02:16:00.973Z,993.91
2023-11-01T02:17:00.897Z,993.91
2023-11-01T02:18:00.979Z,993.96
2023-11-01T02:19:00.853Z,993.91
2023-11-01T02:20:00.840Z,993.88
2023-11-01T02:21:00.834Z,993.84
2023-11-01T02:22:00.824Z,993.81
2023-11-01T02:23:00.797Z,993.78
2023-11-01T02:24:00.796Z,993.82
2023-11-01T02:25:00.772Z,993.78
2023-11-01T02:26:00.756Z,993.79
2023-11-01T02:27:00.764Z,993.75
2023-11-01T02:28:00.737Z,993.71
2023-11-01T02:29:00.728Z,993.75
2023-11-01T02:30:00.711Z,993.67
2023-11-01T02:31:00.738Z,993.70
2023-11-01T02:32:00.699Z,993.66
2023-11-01T02:33:00.801Z,993.61
2023-11-01T02:34:00.662Z,993.63
2023-11-01T02:35:00.640Z,993.64
2023-11-01T02:36:00.643Z,993.66
2023-11-01T02:37:00.610Z,993.68
2023-11-01T02:38:00.604Z,993.64
2023-11-01T02:39:00.607Z,993.55
2023-11-01T02:40:00.577Z,993.68
2023-11-01T02:41:00.582Z,993.66
2023-11-01T02:42:00.597Z,993.67
2023-11-01T02:43:00.535Z,993.64
2023-11-01T02:44:00.538Z,993.60
2023-11-01T02:45:00.507Z,993.61
2023-11-01T02:46:00.714Z,993.65
2023-11-01T02:47:00.501Z,993.65
2023-11-01T02:48:00.508Z,993.66
2023-11-01T02:49:00.456Z,993.65
2023-11-01T02:50:00.499Z,993.67
2023-11-01T02:51:00.445Z,993.63
2023-11-01T02:52:00.412Z,993.70
2023-11-01T02:53:00.401Z,993.64
2023-11-01T02:54:00.402Z,993.67
2023-11-01T02:55:00.400Z,993.67
2023-11-01T02:56:00.358Z,993.62
2023-11-01T02:57:00.348Z,993.58
2023-11-01T02:58:00.333Z,993.57
2023-11-01T02:59:00.328Z,993.58
2023-11-01T03:00:00.325Z,993.59
2023-11-01T03:01:00.305Z,993.51
2023-11-01T03:02:00.280Z,993.58
2023-11-01T03:03:00.387Z,993.54
2023-11-01T03:04:00.293Z,993.58
2023-11-01T03:05:00.269Z,993.54
2023-11-01T03:06:00.237Z,993.54
2023-11-01T03:07:00.232Z,993.54
2023-11-01T03:08:00.210Z,993.47
2023-11-01T03:09:00.191Z,993.54
2023-11-01T03:10:00.208Z,993.50
2023-11-01T03:11:00.164Z,993.46
2023-11-01T03:12:00.184Z,993.43
2023-11-01T03:13:00.144Z,993.44
2023-11-01T03:14:00.148Z,993.42
2023-11-01T03:15:00.140Z,993.41
2023-11-01T03:16:00.140Z,993.41
2023-11-01T03:17:00.083Z,993.42
2023-11-01T03:18:00.153Z,993.40
2023-11-01T03:19:00.103Z,993.40
2023-11-01T03:20:00.051Z,993.39
2023-11-01T03:21:00.056Z,993.39
2023-11-01T03:22:00.026Z,993.36
2023-11-01T03:23:00.003Z,993.35
2023-11-01T03:24:00.009Z,993.35
2023-11-01T03:24:59.989Z,993.39
2023-11-01T03:25:59.969Z,993.35
2023-11-01T03:26:59.951Z,993.43
2023-11-01T03:27:59.937Z,993.37
2023-11-01T03:28:59.943Z,993.38
2023-11-01T03:29:59.917Z,993.48
2023-11-01T03:30:59.945Z,993.37
2023-11-01T03:31:59.889Z,993.48
2023-11-01T03:32:59.994Z,993.50
2023-11-01T03:33:59.870Z,993.40
2023-11-01T03:34:59.881Z,993.39
2023-11-01T03:35:59.828Z,993.31
2023-11-01T03:36:59.815Z,993.24
2023-11-01T03:37:59.823Z,993.29
2023-11-01T03:38:59.801Z,993.27
2023-11-01T03:39:59.794Z,993.27
2023-11-01T03:40:59.758Z,993.24
2023-11-01T03:41:59.743Z,993.31
2023-11-01T03:42:59.753Z,993.30
2023-11-01T03:43:59.719Z,993.32
2023-11-01T03:44:59.712Z,993.30
2023-11-01T03:45:59.704Z,993.28
2023-11-01T03:46:59.687Z,993.32
2023-11-01T03:47:59.824Z,993.24
2023-11-01T03:48:59.653Z,993.21
2023-11-01T03:49:59.639Z,993.23
2023-11-01T03:50:59.644Z,993.14
2023-11-01T03:51:59.609Z,993.14
2023-11-01T03:52:59.614Z,993.14
2023-11-01T03:53:59.587Z,993.16
2023-11-01T03:54:59.585Z,993.21
2023-11-01T03:55:59.559Z,993.21
2023-11-01T03:56:59.561Z,993.17
2023-11-01T03:57:59.552Z,993.18
2023-11-01T03:58:59.548Z,993.17
2023-11-01T03:59:59.537Z,993.11
2023-11-01T04:00:59.488Z,993.13
2023-11-01T04:01:59.511Z,993.19
2023-11-01T04:02:59.568Z,993.13
2023-11-01T04:03:59.488Z,993.16
2023-11-01T04:04:59.448Z,993.04
2023-11-01T04:05:59.425Z,993.02
2023-11-01T04:06:59.451Z,993.05
2023-11-01T04:07:59.432Z,993.04
2023-11-01T04:08:59.382Z,993.07
2023-11-01T04:09:59.369Z,993.05
2023-11-01T04:10:59.386Z,993.04
2023-11-01T04:11:59.389Z,992.95
2023-11-01T04:12:59.353Z,992.98
2023-11-01T04:13:59.312Z,992.94
2023-11-01T04:14:59.306Z,992.95
2023-11-01T04:15:59.328Z,992.94
2023-11-01T04:16:59.279Z,992.96
2023-11-01T04:18:00.963Z,992.94
2023-11-01T04:18:59.255Z,992.84
2023-11-01T04:19:59.235Z,992.99
2023-11-01T04:20:59.232Z,992.97
2023-11-01T04:21:59.212Z,992.91
2023-11-01T04:22:59.217Z,992.96
2023-11-01T04:23:59.177Z,993.02
2023-11-01T04:24:59.180Z,992.96
2023-11-01T04:25:59.165Z,992.97
2023-11-01T04:26:59.135Z,992.96
2023-11-01T04:27:59.122Z,992.91
2023-11-01T04:28:59.108Z,992.89
2023-11-01T04:29:59.112Z,992.96
2023-11-01T04:30:59.086Z,992.94
2023-11-01T04:31:59.096Z,992.94
2023-11-01T04:32:59.118Z,992.97
2023-11-01T04:33:59.071Z,992.82
2023-11-01T04:34:59.045Z,992.89
2023-11-01T04:35:59.020Z,992.93
2023-11-01T04:36:59.010Z,992.93
2023-11-01T04:37:58.988Z,992.92
2023-11-01T04:38:58.999Z,992.92
2023-11-01T04:39:58.993Z,992.94
2023-11-01T04:40:58.944Z,992.89
2023-11-01T04:41:58.931Z,992.89
2023-11-01T04:42:58.922Z,992.84
2023-11-01T04:43:58.924Z,992.88
2023-11-01T04:44:58.906Z,992.86
2023-11-01T04:45:58.881Z,992.82
2023-11-01T04:46:58.867Z,992.86
2023-11-01T04:47:58.902Z,992.92
2023-11-01T04:48:58.864Z,992.90
2023-11-01T04:49:58.825Z,992.83
2023-11-01T04:50:58.813Z,992.88
2023-11-01T04:51:58.823Z,992.81
2023-11-01T04:52:58.904Z,992.81
2023-11-01T04:53:58.785Z,992.83
2023-11-01T04:54:58.780Z,992.77
2023-11-01T04:55:58.755Z,992.74
2023-11-01T04:56:58.730Z,992.72
2023-11-01T04:57:58.722Z,992.72
2023-11-01T04:58:58.735Z,992.67
2023-11-01T04:59:58.691Z,992.77
2023-11-01T05:00:58.675Z,992.71
2023-11-01T05:01:58.662Z,992.75
2023-11-01T05:02:58.734Z,992.66
2023-11-01T05:03:58.668Z,992.70
2023-11-01T05:04:58.624Z,992.67
2023-11-01T05:05:58.678Z,992.75
2023-11-01T05:06:58.597Z,992.70
2023-11-01T05:07:58.596Z,992.76
2023-11-01T05:08:58.588Z,992.66
2023-11-01T05:09:58.558Z,992.78
2023-11-01T05:10:58.653Z,992.76
2023-11-01T05:11:58.532Z,992.68
2023-11-01T05:12:58.543Z,992.72
2023-11-01T05:13:58.508Z,992.74
2023-11-01T05:14:58.490Z,992.69
2023-11-01T05:15:58.477Z,992.64
2023-11-01T05:16:58.466Z,992.64
2023-11-01T05:17:58.541Z,992.58
2023-11-01T05:18:58.448Z,992.64
2023-11-01T05:19:58.427Z,992.64
2023-11-01T05:20:58.422Z,992.62
2023-11-01T05:21:58.414Z,992.57
2023-11-01T05:22:58.420Z,992.60
2023-11-01T05:23:58.367Z,992.52
2023-11-01T05:24:58.354Z,992.57
2023-11-01T05:25:58.342Z,992.55
2023-11-01T05:26:58.371Z,992.58
2023-11-01T05:27:58.375Z,992.46
2023-11-01T05:28:58.322Z,992.52
2023-11-01T05:29:58.291Z,992.58
2023-11-01T05:30:58.306Z,992.44
2023-11-01T05:31:58.299Z,992.52
2023-11-01T05:32:58.419Z,992.50
2023-11-01T05:33:58.282Z,992.52
2023-11-01T05:34:58.230Z,992.44
2023-11-01T05:35:58.291Z,992.43
2023-11-01T05:36:58.306Z,992.49
2023-11-01T05:37:58.200Z,992.50
2023-11-01T05:38:58.185Z,992.45
2023-11-01T05:39:58.181Z,992.54
2023-11-01T05:40:58.165Z,992.54
2023-11-01T05:41:58.167Z,992.50
2023-11-01T05:42:58.136Z,992.52
2023-11-01T05:43:58.107Z,992.53
2023-11-01T05:44:58.088Z,992.55
2023-11-01T05:45:58.125Z,992.50
2023-11-01T05:46:58.066Z,992.50
2023-11-01T05:47:58.136Z,992.57
2023-11-01T05:48:58.037Z,992.49
2023-11-01T05:49:58.025Z,992.54
2023-11-01T05:50:58.054Z,992.60
2023-11-01T05:51:57.999Z,992.54
2023-11-01T05:52:58.139Z,992.48
2023-11-01T05:53:58.048Z,992.52
2023-11-01T05:55:07.151Z,992.51
2023-11-01T05:56:04.789Z,992.55
2023-11-01T05:56:57.937Z,992.54
2023-11-01T05:57:57.928Z,992.56
2023-11-01T05:58:57.934Z,992.52
2023-11-01T05:59:57.909Z,992.52
2023-11-01T06:00:57.892Z,992.56
2023-11-01T06:01:57.877Z,992.59
2023-11-01T06:02:58.017Z,992.58
2023-11-01T06:03:58.068Z,992.58
2023-11-01T06:04:57.896Z,992.53
2023-11-01T06:05:57.810Z,992.52
2023-11-01T06:06:57.803Z,992.49
2023-11-01T06:07:57.788Z,992.55
2023-11-01T06:08:57.768Z,992.57
2023-11-01T06:09:57.787Z,992.58
2023-11-01T06:10:57.752Z,992.64
2023-11-01T06:11:57.730Z,992.56
2023-11-01T06:12:57.745Z,992.57
2023-11-01T06:13:57.720Z,992.56
2023-11-01T06:14:57.762Z,992.57
2023-11-01T06:15:57.677Z,992.54
2023-11-01T06:16:57.682Z,992.56
2023-11-01T06:17:57.727Z,992.51
2023-11-01T06:18:57.654Z,992.55
2023-11-01T06:19:57.629Z,992.59
2023-11-01T06:20:57.628Z,992.60
2023-11-01T06:21:57.594Z,992.50
2023-11-01T06:22:57.584Z,992.49
2023-11-01T06:23:57.584Z,992.54
2023-11-01T06:24:57.554Z,992.52
2023-11-01T06:25:57.540Z,992.51
2023-11-01T06:26:57.529Z,992.47
2023-11-01T06:27:57.530Z,992.57
2023-11-01T06:28:57.540Z,992.52
2023-11-01T06:29:57.509Z,992.44
2023-11-01T06:30:57.498Z,992.41
2023-11-01T06:31:57.466Z,992.39
2023-11-01T06:32:57.717Z,992.46
2023-11-01T06:33:57.521Z,992.44
2023-11-01T06:34:57.420Z,992.40
2023-11-01T06:35:57.434Z,992.35
2023-11-01T06:36:57.395Z,992.35
2023-11-01T06:37:57.397Z,992.40
2023-11-01T06:38:57.401Z,992.40
2023-11-01T06:39:57.360Z,992.45
2023-11-01T06:40:57.341Z,992.39
2023-11-01T06:41:57.374Z,992.46
2023-11-01T06:42:57.331Z,992.43
2023-11-01T06:43:57.304Z,992.40
2023-11-01T06:44:57.311Z,992.45
2023-11-01T06:45:57.286Z,992.45
2023-11-01T06:46:57.363Z,992.42
2023-11-01T06:47:57.343Z,992.45
2023-11-01T06:48:57.239Z,992.44
2023-11-01T06:49:57.245Z,992.43
2023-11-01T06:50:57.278Z,992.44
2023-11-01T06:51:57.228Z,992.45
2023-11-01T06:52:57.182Z,992.47
2023-11-01T06:53:57.186Z,992.46
2023-11-01T06:54:57.152Z,992.39
2023-11-01T06:55:57.146Z,992.41
2023-11-01T06:56:57.171Z,992.45
2023-11-01T06:57:57.153Z,992.46
2023-11-01T06:58:57.110Z,992.48
2023-11-01T06:59:57.155Z,992.51
2023-11-01T07:00:57.083Z,992.55
2023-11-01T07:01:57.075Z,992.46
2023-11-01T07:02:57.098Z,992.56
2023-11-01T07:03:57.118Z,992.51
2023-11-01T07:04:57.031Z,992.53
2023-11-01T07:05:57.067Z,992.57
2023-11-01T07:06:57.010Z,992.52
2023-11-01T07:07:56.982Z,992.59
2023-11-01T07:08:57.006Z,992.47
2023-11-01T07:09:56.957Z,992.50
2023-11-01T07:10:56.994Z,992.49
2023-11-01T07:11:56.989Z,992.52
2023-11-01T07:12:56.917Z,992.49
2023-11-01T07:13:56.902Z,992.50
2023-11-01T07:14:56.923Z,992.56
2023-11-01T07:15:56.970Z,992.53
2023-11-01T07:16:56.858Z,992.52
2023-11-01T07:17:56.907Z,992.49
2023-11-01T07:18:56.862Z,992.58
2023-11-01T07:19:56.853Z,992.56
2023-11-01T07:20:56.900Z,992.59
2023-11-01T07:21:56.867Z,992.56
2023-11-01T07:22:56.809Z,992.53
2023-11-01T07:23:56.835Z,992.59
2023-11-01T07:24:56.770Z,992.43
2023-11-01T07:25:56.760Z,992.53
2023-11-01T07:26:56.770Z,992.49
2023-11-01T07:27:56.720Z,992.45
2023-11-01T07:28:56.702Z,992.45
2023-11-01T07:29:56.762Z,992.42
2023-11-01T07:30:56.674Z,992.45
2023-11-01T07:31:56.669Z,992.41
2023-11-01T07:32:56.712Z,992.50
2023-11-01T07:33:56.641Z,992.46
2023-11-01T07:34:56.712Z,992.50
2023-11-01T07:35:56.738Z,992.46
2023-11-01T07:36:56.606Z,992.46
2023-11-01T07:37:56.582Z,992.50
2023-11-01T07:38:56.582Z,992.50
2023-11-01T07:39:56.597Z,992.50
2023-11-01T07:40:56.541Z,992.53
2023-11-01T07:41:56.552Z,992.59
2023-11-01T07:42:56.514Z,992.52
2023-11-01T07:43:56.520Z,992.52
2023-11-01T07:44:56.591Z,992.52
2023-11-01T07:45:56.511Z,992.56
2023-11-01T07:46:56.476Z,992.54
2023-11-01T07:47:56.493Z,992.55
2023-11-01T07:48:56.453Z,992.48
2023-11-01T07:49:56.449Z,992.51
2023-11-01T07:50:56.455Z,992.58
2023-11-01T07:51:56.399Z,992.49
2023-11-01T07:52:56.380Z,992.47
2023-11-01T07:53:56.426Z,992.59
2023-11-01T07:54:56.354Z,992.47
2023-11-01T07:55:56.347Z,992.49
2023-11-01T07:56:56.348Z,992.41
2023-11-01T07:57:56.336Z,992.43
2023-11-01T07:58:56.324Z,992.46
2023-11-01T07:59:56.338Z,992.45
2023-11-01T08:00:56.282Z,992.43
2023-11-01T08:01:57.510Z,992.45
2023-11-01T08:02:56.363Z,992.45
2023-11-01T08:03:56.467Z,992.45
2023-11-01T08:04:56.245Z,992.41
2023-11-01T08:05:56.252Z,992.44
2023-11-01T08:06:56.220Z,992.55
2023-11-01T08:07:56.205Z,992.52
2023-11-01T08:08:56.170Z,992.49
2023-11-01T08:09:56.163Z,992.47
2023-11-01T08:10:56.148Z,992.51
2023-11-01T08:11:56.169Z,992.54
2023-11-01T08:12:56.135Z,992.57
2023-11-01T08:13:56.158Z,992.56
2023-11-01T08:14:56.108Z,992.54
2023-11-01T08:15:56.113Z,992.52
2023-11-01T08:16:56.188Z,992.48
2023-11-01T08:17:56.097Z,992.47
2023-11-01T08:18:56.036Z,992.53
2023-11-01T08:19:56.029Z,992.48
2023-11-01T08:20:56.059Z,992.46
2023-11-01T08:21:56.010Z,992.43
2023-11-01T08:22:56.026Z,992.38
2023-11-01T08:23:56.038Z,992.41
2023-11-01T08:24:55.957Z,992.44
2023-11-01T08:25:55.993Z,992.46
2023-11-01T08:26:55.964Z,992.43
2023-11-01T08:27:55.918Z,992.44
2023-11-01T08:28:55.904Z,992.48
2023-11-01T08:29:55.939Z,992.40
2023-11-01T08:30:55.895Z,992.48
2023-11-01T08:31:55.903Z,992.40
2023-11-01T08:32:55.912Z,992.50
2023-11-01T08:33:55.969Z,992.53
2023-11-01T08:34:55.825Z,992.55
2023-11-01T08:35:55.868Z,992.50
2023-11-01T08:36:55.799Z,992.58
2023-11-01T08:37:55.786Z,992.58
2023-11-01T08:38:55.813Z,992.52
2023-11-01T08:39:55.775Z,992.55
2023-11-01T08:40:55.765Z,992.34
2023-11-01T08:41:55.796Z,992.14
2023-11-01T08:42:55.727Z,992.25
2023-11-01T08:43:55.713Z,992.25
2023-11-01T08:44:55.747Z,992.31
2023-11-01T08:45:55.691Z,992.37
2023-11-01T08:46:55.665Z,992.25
2023-11-01T08:47:55.760Z,992.32
2023-11-01T08:48:55.638Z,992.35
2023-11-01T08:49:55.646Z,992.35
2023-11-01T08:50:55.626Z,992.33
2023-11-01T08:51:55.600Z,992.27
2023-11-01T08:52:55.628Z,992.26
2023-11-01T08:53:55.602Z,992.29
2023-11-01T08:54:55.595Z,992.26
2023-11-01T08:55:55.547Z,992.35
2023-11-01T08:56:55.630Z,992.27
2023-11-01T08:57:55.517Z,992.27
2023-11-01T08:58:55.524Z,992.29
2023-11-01T08:59:55.560Z,992.32
2023-11-01T09:00:56.978Z,992.34
2023-11-01T09:02:05.027Z,992.25
2023-11-01T09:02:55.524Z,992.32
2023-11-01T09:03:55.543Z,992.33
2023-11-01T09:04:55.425Z,992.25
2023-11-01T09:05:55.433Z,992.24
2023-11-01T09:06:55.398Z,992.29
2023-11-01T09:07:55.403Z,992.30
2023-11-01T09:08:55.413Z,992.27
2023-11-01T09:09:56.499Z,992.26
2023-11-01T09:10:55.370Z,992.27
2023-11-01T09:11:55.369Z,992.33
2023-11-01T09:12:55.369Z,992.27
2023-11-01T09:13:55.310Z,992.39
2023-11-01T09:14:55.320Z,992.31
2023-11-01T09:15:55.275Z,992.27
2023-11-01T09:16:55.306Z,992.29
2023-11-01T09:17:55.319Z,992.31
2023-11-01T09:18:55.229Z,992.30
2023-11-01T09:19:55.217Z,992.28
2023-11-01T09:20:55.249Z,992.34
2023-11-01T09:21:55.215Z,992.28
2023-11-01T09:22:55.198Z,992.33
2023-11-01T09:23:55.189Z,992.27
2023-11-01T09:24:55.152Z,992.32
2023-11-01T09:25:55.142Z,992.29
2023-11-01T09:26:55.180Z,992.27
2023-11-01T09:27:55.127Z,992.29
2023-11-01T09:28:55.099Z,992.25
2023-11-01T09:29:55.146Z,992.24
2023-11-01T09:30:55.071Z,992.25
2023-11-01T09:31:55.093Z,992.32
2023-11-01T09:32:55.221Z,992.26
2023-11-01T09:33:55.149Z,992.20
2023-11-01T09:34:55.014Z,992.23
2023-11-01T09:35:55.041Z,992.41
2023-11-01T09:36:55.004Z,992.50
2023-11-01T09:37:54.974Z,992.26
2023-11-01T09:38:55.034Z,992.39
2023-11-01T09:39:54.957Z,992.41
2023-11-01T09:40:54.952Z,992.37
2023-11-01T09:41:54.932Z,992.38
2023-11-01T09:42:54.949Z,992.40
2023-11-01T09:43:54.907Z,992.32
2023-11-01T09:44:54.946Z,992.24
2023-11-01T09:45:54.890Z,992.16
2023-11-01T09:46:54.944Z,992.04
2023-11-01T09:47:54.896Z,992.47
2023-11-01T09:48:54.830Z,992.48
2023-11-01T09:49:54.850Z,992.26
2023-11-01T09:50:54.839Z,992.46
2023-11-01T09:51:54.799Z,992.29
2023-11-01T09:52:54.789Z,992.39
2023-11-01T09:53:54.810Z,992.18
2023-11-01T09:54:54.766Z,992.16
2023-11-01T09:55:54.754Z,992.06
2023-11-01T09:56:54.765Z,992.15
2023-11-01T09:57:54.710Z,992.51
2023-11-01T09:58:54.719Z,992.42
2023-11-01T09:59:54.751Z,992.47
2023-11-01T10:00:54.704Z,992.38
2023-11-01T10:01:54.670Z,992.49
2023-11-01T10:02:54.713Z,992.52
2023-11-01T10:03:54.650Z,992.38
2023-11-01T10:04:54.681Z,992.33
2023-11-01T10:05:54.654Z,992.27
2023-11-01T10:06:54.607Z,992.30
2023-11-01T10:07:54.579Z,992.16
2023-11-01T10:08:54.648Z,992.13
2023-11-01T10:09:54.568Z,992.10
2023-11-01T10:10:54.540Z,992.06
2023-11-01T10:11:54.562Z,992.07
2023-11-01T10:12:54.530Z,992.10
2023-11-01T10:13:54.535Z,992.06
2023-11-01T10:14:54.568Z,992.14
2023-11-01T10:15:54.522Z,992.06
2023-11-01T10:16:54.462Z,992.12
2023-11-01T10:17:54.506Z,992.22
2023-11-01T10:18:54.463Z,992.15
2023-11-01T10:19:54.422Z,992.07
2023-11-01T10:20:54.432Z,992.09
2023-11-01T10:21:54.395Z,992.17
2023-11-01T10:22:54.380Z,991.99
2023-11-01T10:23:54.442Z,992.08
2023-11-01T10:24:54.357Z,992.11
2023-11-01T10:25:54.347Z,992.13
2023-11-01T10:26:54.362Z,992.14
2023-11-01T10:27:54.314Z,992.17
2023-11-01T10:28:54.326Z,992.16
2023-11-01T10:29:54.430Z,992.11
2023-11-01T10:30:54.298Z,992.22
2023-11-01T10:31:54.265Z,992.10
2023-11-01T10:32:54.358Z,992.13
2023-11-01T10:33:54.660Z,992.09
2023-11-01T10:34:54.230Z,992.04
2023-11-01T10:35:54.230Z,992.07
2023-11-01T10:36:54.199Z,992.08
2023-11-01T10:37:54.206Z,992.02
2023-11-01T10:38:54.203Z,992.00
2023-11-01T10:39:54.159Z,992.08
2023-11-01T10:40:54.145Z,992.04
2023-11-01T10:41:54.147Z,991.98
2023-11-01T10:42:55.734Z,991.86
2023-11-01T10:43:54.137Z,991.82
2023-11-01T10:44:54.145Z,991.75
2023-11-01T10:45:54.095Z,991.72
2023-11-01T10:46:54.094Z,991.66
2023-11-01T10:47:54.162Z,991.62
2023-11-01T10:48:54.056Z,991.56
2023-11-01T10:49:54.027Z,991.56
2023-11-01T10:50:54.108Z,991.54
2023-11-01T10:51:54.021Z,991.58
2023-11-01T10:52:54.011Z,991.57
2023-11-01T10:53:54.034Z,991.68
2023-11-01T10:54:54.010Z,991.62
2023-11-01T10:55:53.952Z,991.57
2023-11-01T10:56:53.968Z,991.57
2023-11-01T10:57:53.922Z,991.57
2023-11-01T10:58:53.918Z,991.54
2023-11-01T10:59:53.961Z,991.53
2023-11-01T11:00:53.882Z,991.65
2023-11-01T11:01:53.916Z,991.57
2023-11-01T11:02:54.025Z,991.55
2023-11-01T11:03:54.094Z,991.62
2023-11-01T11:04:53.939Z,991.54
2023-11-01T11:05:53.888Z,991.53
2023-11-01T11:06:53.829Z,991.55
2023-11-01T11:07:53.788Z,991.48
2023-11-01T11:08:53.795Z,991.43
2023-11-01T11:09:53.760Z,991.50
2023-11-01T11:10:53.767Z,991.49
2023-11-01T11:11:53.800Z,991.44
2023-11-01T11:12:53.729Z,991.45
2023-11-01T11:13:53.708Z,991.41
2023-11-01T11:14:53.717Z,991.41
2023-11-01T11:15:53.722Z,991.45
2023-11-01T11:16:53.668Z,991.38
2023-11-01T11:17:53.686Z,991.29
2023-11-01T11:18:53.661Z,991.28
2023-11-01T11:19:53.627Z,991.25
2023-11-01T11:20:53.775Z,991.22
2023-11-01T11:21:53.646Z,991.24
2023-11-01T11:22:53.593Z,991.21
2023-11-01T11:23:53.673Z,991.17
2023-11-01T11:24:53.949Z,991.17
2023-11-01T11:25:53.577Z,991.14
2023-11-01T11:26:53.550Z,991.06
2023-11-01T11:27:53.779Z,991.17
2023-11-01T11:28:53.507Z,991.12
2023-11-01T11:29:53.526Z,991.13
2023-11-01T11:30:53.495Z,991.12
2023-11-01T11:31:53.504Z,991.10
2023-11-01T11:32:53.530Z,991.07
2023-11-01T11:33:53.434Z,991.03
2023-11-01T11:34:53.509Z,991.01
2023-11-01T11:35:53.486Z,991.05
2023-11-01T11:36:53.398Z,991.03
2023-11-01T11:37:53.392Z,990.94
2023-11-01T11:38:53.425Z,990.99
2023-11-01T11:39:53.375Z,990.89
2023-11-01T11:40:53.343Z,990.96
2023-11-01T11:41:53.380Z,990.91
2023-11-01T11:42:53.323Z,990.89
2023-11-01T11:43:53.304Z,990.82
2023-11-01T11:44:53.332Z,990.86
2023-11-01T11:45:53.327Z,990.93
2023-11-01T11:46:53.268Z,990.85
2023-11-01T11:47:53.339Z,990.87
2023-11-01T11:48:53.253Z,990.85
2023-11-01T11:49:53.237Z,990.82
2023-11-01T11:50:53.287Z,990.85
2023-11-01T11:51:53.246Z,990.83
2023-11-01T11:52:53.188Z,990.79
2023-11-01T11:53:53.263Z,990.84
2023-11-01T11:54:53.158Z,990.90
2023-11-01T11:55:53.142Z,990.83
2023-11-01T11:56:53.145Z,990.86
2023-11-01T11:57:53.111Z,990.78
2023-11-01T11:58:53.117Z,990.77
2023-11-01T11:59:53.097Z,990.73
2023-11-01T12:00:53.077Z,990.76
2023-11-01T12:01:53.165Z,990.73
2023-11-01T12:02:53.114Z,990.70
2023-11-01T12:03:53.086Z,990.65
2023-11-01T12:04:53.027Z,990.64
2023-11-01T12:05:53.032Z,990.61
2023-11-01T12:06:53.015Z,990.61
2023-11-01T12:07:52.996Z,990.60
2023-11-01T12:08:52.989Z,990.63
2023-11-01T12:09:52.954Z,990.63
2023-11-01T12:10:52.951Z,990.56
2023-11-01T12:11:52.972Z,990.55
2023-11-01T12:12:52.927Z,990.54
2023-11-01T12:13:52.896Z,990.50
2023-11-01T12:14:52.950Z,990.48
2023-11-01T12:15:52.866Z,990.52
2023-11-01T12:16:52.958Z,990.48
2023-11-01T12:17:52.898Z,990.45
2023-11-01T12:18:52.829Z,990.42
2023-11-01T12:19:52.814Z,990.41
2023-11-01T12:20:52.838Z,990.40
2023-11-01T12:21:52.808Z,990.29
2023-11-01T12:22:52.814Z,990.36
2023-11-01T12:23:52.789Z,990.29
2023-11-01T12:24:52.757Z,990.28
2023-11-01T12:25:52.735Z,990.30
2023-11-01T12:26:52.756Z,990.26
2023-11-01T12:27:52.707Z,990.31